Time;durP1;ratioP1;P1;durP2;ratioP2;P2;SDS_P1;SDS_P2;PMS_P1;PMS_P2;Temp;Humidity;BMP_temperature;BMP_pressure;BME280_temperature;BME280_humidity;BME280_pressure;Samples;Min_cycle;Max_cycle;Signal;HPM_P1;HPM_P2
2023/03/02 00:01:58;;;;;;;8.50;5.13;;;;;;;2.59;64.97;102320.63;5233028;28;20503;-71
2023/03/02 00:04:48;;;;;;;8.65;4.70;;;;;;;2.61;65.24;102318.00;5233028;28;20410;-73
2023/03/02 00:07:26;;;;;;;8.57;5.10;;;;;;;2.51;64.69;102326.91;5231883;28;20032;-73
2023/03/02 00:09:58;;;;;;;8.23;5.45;;;;;;;2.44;64.93;102324.50;5233291;28;20479;-71
2023/03/02 00:12:31;;;;;;;10.10;5.70;;;;;;;2.46;65.58;102321.84;5235453;28;20022;-72
2023/03/02 00:15:03;;;;;;;7.57;5.10;;;;;;;2.34;64.96;102304.91;5231275;28;20041;-73
2023/03/02 00:17:36;;;;;;;7.28;5.20;;;;;;;2.49;64.17;102324.34;5229796;28;20044;-71
2023/03/02 00:20:11;;;;;;;9.20;5.23;;;;;;;2.43;65.05;102320.22;5234470;28;20022;-71
2023/03/02 00:22:44;;;;;;;8.18;5.43;;;;;;;2.37;66.05;102314.34;5232486;28;20120;-73
2023/03/02 00:25:16;;;;;;;7.75;5.20;;;;;;;2.38;66.74;102331.56;5214571;28;20033;-72
2023/03/02 00:27:47;;;;;;;7.60;4.88;;;;;;;2.35;65.40;102321.28;5232415;28;20365;-70
2023/03/02 00:30:19;;;;;;;8.85;4.80;;;;;;;2.30;65.46;102326.59;5231739;28;20040;-71
2023/03/02 00:32:50;;;;;;;7.88;5.32;;;;;;;2.25;65.63;102325.88;5229087;28;20045;-74
2023/03/02 00:35:22;;;;;;;7.28;5.05;;;;;;;2.32;66.81;102331.72;5234520;28;20057;-72
2023/03/02 00:37:53;;;;;;;6.32;4.65;;;;;;;2.28;65.32;102330.97;5231136;28;20156;-70
2023/03/02 00:40:24;;;;;;;6.97;4.75;;;;;;;2.31;64.92;102332.59;5231182;28;20052;-71
2023/03/02 00:42:55;;;;;;;7.18;4.95;;;;;;;2.30;65.06;102338.66;5234831;28;20018;-71
2023/03/02 00:45:27;;;;;;;7.45;4.88;;;;;;;2.17;66.28;102315.72;5231448;28;20452;-71
2023/03/02 00:47:58;;;;;;;8.07;5.35;;;;;;;2.25;65.36;102322.44;5231084;28;20491;-71
2023/03/02 00:50:29;;;;;;;6.95;5.00;;;;;;;2.26;68.06;102322.38;5233347;28;20389;-71
2023/03/02 00:53:00;;;;;;;7.10;4.93;;;;;;;2.28;65.02;102327.53;5233130;28;20076;-71
2023/03/02 00:55:32;;;;;;;7.68;5.57;;;;;;;2.23;66.01;102329.38;5231548;28;20057;-71
2023/03/02 00:58:03;;;;;;;8.00;4.97;;;;;;;2.25;67.57;102325.88;5233513;28;20029;-71
2023/03/02 01:00:36;;;;;;;9.35;5.60;;;;;;;2.27;65.76;102323.22;5220435;28;20491;-71
2023/03/02 01:03:07;;;;;;;7.80;4.90;;;;;;;2.25;65.63;102325.03;5212557;28;20026;-71
2023/03/02 01:05:38;;;;;;;8.52;5.15;;;;;;;2.21;66.57;102318.25;5207564;28;20041;-70
2023/03/02 01:08:10;;;;;;;6.10;4.45;;;;;;;2.22;66.73;102314.75;5211269;28;20064;-71
2023/03/02 01:10:42;;;;;;;8.43;5.57;;;;;;;2.21;65.81;102315.66;5210781;28;20026;-71
2023/03/02 01:13:13;;;;;;;10.07;5.47;;;;;;;2.14;66.66;102310.63;5263168;22;20063;-76
2023/03/02 01:15:45;;;;;;;6.55;4.63;;;;;;;2.14;65.94;102302.03;5267006;28;20021;-76
2023/03/02 01:18:16;;;;;;;6.63;4.80;;;;;;;2.16;65.79;102302.84;5268556;28;20528;-76
2023/03/02 01:20:47;;;;;;;6.97;4.97;;;;;;;2.11;66.31;102302.09;5269056;28;20052;-76
2023/03/02 01:23:19;;;;;;;7.57;5.10;;;;;;;2.10;66.37;102301.25;5246673;28;20053;-76
2023/03/02 01:25:50;;;;;;;7.63;4.80;;;;;;;2.07;66.58;102295.31;5270695;28;20071;-76
2023/03/02 01:28:22;;;;;;;7.05;5.18;;;;;;;2.08;66.44;102297.84;5270231;28;20075;-76
2023/03/02 01:30:53;;;;;;;8.55;5.53;;;;;;;2.05;66.97;102292.78;5268550;28;20024;-75
2023/03/02 01:33:24;;;;;;;8.30;4.75;;;;;;;1.99;67.16;102298.09;5273319;28;20195;-76
2023/03/02 01:35:56;;;;;;;7.00;5.00;;;;;;;2.11;66.95;102289.19;5270152;28;20031;-75
2023/03/02 01:38:27;;;;;;;10.18;5.55;;;;;;;2.04;67.57;102298.81;5267131;28;20040;-76
2023/03/02 01:40:58;;;;;;;7.45;5.68;;;;;;;2.03;66.28;102284.22;5263944;28;20086;-76
2023/03/02 01:43:30;;;;;;;8.93;5.15;;;;;;;2.05;67.14;102290.19;5267723;28;20020;-75
2023/03/02 01:46:24;;;;;;;8.23;5.25;;;;;;;2.11;66.66;102286.59;5270626;28;20043;-75
2023/03/02 01:49:12;;;;;;;8.57;5.38;;;;;;;2.16;67.81;102284.75;5267192;28;20104;-75
2023/03/02 01:51:46;;;;;;;9.15;5.57;;;;;;;2.05;67.02;102281.59;5269966;28;20984;-75
2023/03/02 01:54:21;;;;;;;7.68;4.82;;;;;;;1.98;67.31;102277.47;5269229;28;20071;-75
2023/03/02 01:56:58;;;;;;;8.25;5.13;;;;;;;2.04;67.31;102275.56;5267476;28;20509;-75
2023/03/02 01:59:31;;;;;;;9.38;5.78;;;;;;;1.97;68.04;102279.22;5254833;28;20171;-75
2023/03/02 02:02:06;;;;;;;7.30;5.07;;;;;;;1.97;68.11;102283.50;5267920;28;20118;-75
2023/03/02 02:04:41;;;;;;;8.27;5.90;;;;;;;1.95;69.14;102280.97;5266740;28;20025;-75
2023/03/02 02:07:14;;;;;;;7.32;5.22;;;;;;;1.83;68.71;102273.56;5266693;28;20033;-75
2023/03/02 02:09:48;;;;;;;7.25;5.35;;;;;;;1.90;69.24;102275.09;5269229;28;20073;-75
2023/03/02 02:12:21;;;;;;;8.23;5.55;;;;;;;1.78;69.18;102271.09;5266195;28;20605;-75
2023/03/02 02:14:59;;;;;;;8.48;5.45;;;;;;;1.85;68.65;102277.75;5267689;28;20039;-75
2023/03/02 02:17:30;;;;;;;9.02;5.00;;;;;;;1.86;69.84;102287.25;5264234;28;20036;-75
2023/03/02 02:20:18;;;;;;;7.85;5.55;;;;;;;2.06;68.54;102276.38;5268733;28;20408;-75
2023/03/02 02:23:12;;;;;;;12.98;6.15;;;;;;;2.08;69.39;102277.16;5248511;28;20027;-75
2023/03/02 02:25:57;;;;;;;8.32;5.57;;;;;;;1.95;68.75;102278.41;5258884;28;20140;-75
2023/03/02 02:28:34;;;;;;;8.45;6.10;;;;;;;1.93;69.79;102275.88;5267904;28;20021;-75
2023/03/02 02:31:28;;;;;;;9.57;5.97;;;;;;;2.05;69.58;102260.91;5266885;28;20024;-75
2023/03/02 02:34:11;;;;;;;7.50;5.32;;;;;;;1.91;70.48;102271.59;5267986;28;20025;-75
2023/03/02 02:36:46;;;;;;;13.80;6.10;;;;;;;1.82;71.20;102269.25;5266365;28;20036;-75
2023/03/02 02:39:30;;;;;;;8.23;5.93;;;;;;;1.83;71.73;102256.31;5267652;28;20494;-75
2023/03/02 02:42:05;;;;;;;9.30;5.90;;;;;;;1.70;71.64;102254.91;5266764;28;20039;-75
2023/03/02 02:44:37;;;;;;;8.95;6.75;;;;;;;1.56;73.55;102251.84;5267391;28;20477;-75
2023/03/02 02:47:18;;;;;;;9.43;6.38;;;;;;;1.70;72.98;102249.72;5265078;28;20039;-75
2023/03/02 02:49:52;;;;;;;9.82;6.97;;;;;;;1.56;73.78;102247.53;5262634;28;20051;-75
2023/03/02 02:52:27;;;;;;;10.93;7.05;;;;;;;1.50;75.50;102252.81;5268957;28;20032;-75
2023/03/02 02:54:59;;;;;;;10.07;7.68;;;;;;;1.44;76.51;102253.84;5247296;28;20515;-76
2023/03/02 02:57:30;;;;;;;11.90;7.80;;;;;;;1.39;76.47;102250.50;5267247;28;20119;-75
2023/03/02 03:00:03;;;;;;;11.60;8.45;;;;;;;1.38;77.29;102251.38;5270073;28;20044;-75
2023/03/02 03:02:43;;;;;;;11.10;7.93;;;;;;;1.52;77.35;102256.22;5245559;28;20028;-75
2023/03/02 03:05:15;;;;;;;11.40;8.32;;;;;;;1.36;79.21;102244.56;5265150;28;20299;-75
2023/03/02 03:07:46;;;;;;;12.35;8.93;;;;;;;1.38;79.01;102246.22;5247267;28;20440;-75
2023/03/02 03:10:38;;;;;;;14.55;9.75;;;;;;;1.60;78.95;102251.72;5268212;28;20028;-75
2023/03/02 03:13:11;;;;;;;14.40;9.88;;;;;;;1.41;80.70;102253.91;5266776;28;20462;-75
2023/03/02 03:15:42;;;;;;;15.88;10.70;;;;;;;1.45;81.82;102257.25;5266803;28;20036;-75
2023/03/02 03:18:23;;;;;;;16.13;10.85;;;;;;;1.51;81.70;102251.94;5264125;28;20489;-75
2023/03/02 03:20:54;;;;;;;15.90;10.75;;;;;;;1.35;83.08;102242.88;5266354;28;20508;-75
2023/03/02 03:23:25;;;;;;;19.10;12.70;;;;;;;1.30;83.99;102245.56;5271282;28;20052;-75
2023/03/02 03:25:57;;;;;;;17.15;11.90;;;;;;;1.30;84.50;102229.22;5270089;28;20056;-75
2023/03/02 03:28:28;;;;;;;17.30;12.50;;;;;;;1.34;86.05;102238.59;5264023;28;20021;-75
2023/03/02 03:30:59;;;;;;;18.55;12.82;;;;;;;1.32;86.64;102242.94;5251917;28;20024;-75
2023/03/02 03:33:30;;;;;;;19.42;13.68;;;;;;;1.30;88.26;102235.22;5249705;28;20086;-75
2023/03/02 03:36:02;;;;;;;21.88;14.45;;;;;;;1.30;89.26;102237.81;5264400;28;20032;-75
2023/03/02 03:38:34;;;;;;;21.33;14.70;;;;;;;1.28;91.24;102236.13;5269323;28;20048;-75
2023/03/02 03:41:05;;;;;;;20.05;15.15;;;;;;;1.28;90.79;102238.72;5246787;28;20544;-75
2023/03/02 03:43:37;;;;;;;21.17;15.10;;;;;;;1.31;91.45;102236.91;5248734;28;20381;-75
2023/03/02 03:46:08;;;;;;;22.23;16.40;;;;;;;1.28;91.91;102228.41;5250400;28;20434;-75
2023/03/02 03:48:40;;;;;;;21.77;16.10;;;;;;;1.31;92.79;102236.91;5266369;28;20036;-75
2023/03/02 03:51:11;;;;;;;25.65;17.33;;;;;;;1.33;94.10;102244.66;5261792;28;20433;-75
2023/03/02 03:53:42;;;;;;;24.10;17.10;;;;;;;1.25;94.55;102244.81;5248616;28;20611;-75
2023/03/02 03:56:13;;;;;;;26.20;18.15;;;;;;;1.26;96.28;102243.09;5269398;28;20428;-75
2023/03/02 03:58:45;;;;;;;26.42;17.92;;;;;;;1.28;95.74;102242.16;5246133;28;20037;-75
2023/03/02 04:01:16;;;;;;;27.23;18.80;;;;;;;1.28;96.01;102252.47;5266650;28;20028;-75
2023/03/02 04:03:47;;;;;;;26.77;19.25;;;;;;;1.35;97.47;102248.03;5265226;28;20389;-75
2023/03/02 04:06:19;;;;;;;25.90;19.30;;;;;;;1.37;98.24;102246.28;5263280;28;20385;-75
2023/03/02 04:08:50;;;;;;;27.77;19.73;;;;;;;1.26;98.96;102243.94;5267860;28;20790;-75
2023/03/02 04:11:22;;;;;;;29.02;19.63;;;;;;;1.28;99.05;102243.88;5269909;28;20070;-75
2023/03/02 04:13:53;;;;;;;29.77;20.60;;;;;;;1.27;100.00;102240.47;5265450;28;20041;-75
2023/03/02 04:16:24;;;;;;;30.13;21.40;;;;;;;1.27;100.00;102244.78;5267169;28;20020;-75
2023/03/02 04:18:56;;;;;;;33.13;21.40;;;;;;;1.26;100.00;102235.34;5266281;28;20052;-75
2023/03/02 04:21:28;;;;;;;31.92;21.25;;;;;;;1.30;100.00;102245.56;5248184;28;20119;-75
2023/03/02 04:24:00;;;;;;;31.42;22.77;;;;;;;1.28;100.00;102230.97;5264009;28;20036;-75
2023/03/02 04:26:31;;;;;;;30.88;20.75;;;;;;;1.31;100.00;102236.91;5247922;28;20017;-75
2023/03/02 04:29:03;;;;;;;32.95;21.98;;;;;;;1.30;100.00;102239.56;5264714;28;20025;-75
2023/03/02 04:31:34;;;;;;;30.50;21.73;;;;;;;1.31;100.00;102239.50;5264631;28;20032;-75
2023/03/02 04:34:06;;;;;;;29.30;20.15;;;;;;;1.33;100.00;102234.31;5263621;28;20029;-75
2023/03/02 04:36:39;;;;;;;33.35;21.35;;;;;;;1.33;100.00;102239.47;5267175;28;20028;-75
2023/03/02 04:39:13;;;;;;;29.27;20.70;;;;;;;1.40;100.00;102239.31;5263726;28;20394;-75
2023/03/02 04:41:46;;;;;;;31.33;20.33;;;;;;;1.32;100.00;102236.03;5264273;28;20036;-75
2023/03/02 04:44:18;;;;;;;30.73;21.00;;;;;;;1.34;100.00;102243.75;5263350;28;20090;-75
2023/03/02 04:46:49;;;;;;;31.50;20.77;;;;;;;1.32;100.00;102237.75;5266694;28;20025;-75
2023/03/02 04:49:21;;;;;;;33.22;20.55;;;;;;;1.30;100.00;102242.97;5266637;28;20489;-76
2023/03/02 04:51:52;;;;;;;32.10;21.25;;;;;;;1.29;100.00;102235.25;5265833;28;20028;-75
2023/03/02 04:54:25;;;;;;;29.88;19.73;;;;;;;1.41;100.00;102238.41;5270893;28;20371;-75
2023/03/02 04:56:57;;;;;;;29.85;19.38;;;;;;;1.34;100.00;102236.84;5266645;28;21167;-75
2023/03/02 04:59:28;;;;;;;28.75;20.00;;;;;;;1.35;100.00;102242.88;5270747;28;20049;-75
2023/03/02 05:02:01;;;;;;;28.48;20.67;;;;;;;1.34;100.00;102228.25;5271528;28;20012;-75
2023/03/02 05:04:33;;;;;;;;;;;;;;;1.88;97.72;102238.94;5266384;28;20040;-75
2023/03/02 05:07:04;;;;;;;29.42;19.67;;;;;;;1.39;100.00;102240.16;5250183;28;19909;-75
2023/03/02 05:09:35;;;;;;;30.52;19.60;;;;;;;1.33;100.00;102236.91;5266774;28;20037;-75
2023/03/02 05:12:07;;;;;;;29.55;20.02;;;;;;;1.30;100.00;102247.28;5271489;28;20090;-76
2023/03/02 05:14:38;;;;;;;30.67;20.75;;;;;;;1.34;100.00;102246.34;5268705;28;20360;-75
2023/03/02 05:17:09;;;;;;;31.35;21.08;;;;;;;1.28;100.00;102241.31;5265850;28;20041;-76
2023/03/02 05:19:41;;;;;;;28.98;20.05;;;;;;;1.21;100.00;102231.16;5272198;28;20035;-75
2023/03/02 05:22:12;;;;;;;29.17;20.50;;;;;;;1.21;100.00;102253.50;5266546;28;20534;-76
2023/03/02 05:24:43;;;;;;;31.65;21.35;;;;;;;1.22;100.00;102257.81;5266751;28;20519;-76
2023/03/02 05:27:14;;;;;;;31.25;21.13;;;;;;;1.23;100.00;102256.06;5265558;28;20048;-75
2023/03/02 05:29:46;;;;;;;33.30;21.98;;;;;;;1.05;100.00;102208.28;5269171;28;20032;-76
2023/03/02 05:32:17;;;;;;;32.75;23.08;;;;;;;1.19;100.00;102237.22;5267274;28;20029;-75
2023/03/02 05:34:48;;;;;;;36.28;23.10;;;;;;;1.15;100.00;102245.91;5270742;28;20025;-76
2023/03/02 05:37:19;;;;;;;34.35;22.55;;;;;;;1.15;100.00;102249.34;5268314;28;20021;-75
2023/03/02 05:39:51;;;;;;;33.08;23.60;;;;;;;1.09;100.00;102239.16;5268020;28;20028;-75
2023/03/02 05:42:23;;;;;;;35.78;23.10;;;;;;;1.16;100.00;102248.44;5267690;28;20036;-76
2023/03/02 05:44:54;;;;;;;34.22;22.38;;;;;;;1.07;100.00;102237.50;5265748;28;20053;-75
2023/03/02 05:47:25;;;;;;;37.22;24.80;;;;;;;1.06;100.00;102249.56;5269832;28;20029;-76
2023/03/02 05:49:58;;;;;;;34.63;23.58;;;;;;;1.04;100.00;102246.16;5268912;28;20218;-76
2023/03/02 05:52:29;;;;;;;35.40;23.10;;;;;;;1.04;100.00;102241.00;5268525;28;20029;-75
2023/03/02 05:55:00;;;;;;;35.53;24.30;;;;;;;1.01;100.00;102246.22;5268674;28;20035;-75
2023/03/02 05:57:32;;;;;;;36.67;23.98;;;;;;;1.05;100.00;102244.41;5249573;28;20020;-75
2023/03/02 06:00:05;;;;;;;37.53;24.67;;;;;;;1.03;100.00;102241.88;5267658;28;20024;-75
2023/03/02 06:02:38;;;;;;;38.28;23.42;;;;;;;0.98;100.00;102243.69;5266292;28;20075;-75
2023/03/02 06:05:16;;;;;;;38.85;24.30;;;;;;;1.12;100.00;102244.25;5268487;28;20031;-75
2023/03/02 06:07:47;;;;;;;36.47;23.27;;;;;;;0.92;100.00;102230.97;5263701;28;20033;-75
2023/03/02 06:10:18;;;;;;;38.03;24.17;;;;;;;0.99;100.00;102236.84;5263462;28;20035;-75
2023/03/02 06:12:50;;;;;;;36.63;23.50;;;;;;;1.06;100.00;102241.81;5265333;28;20043;-75
2023/03/02 06:15:21;;;;;;;38.03;24.48;;;;;;;1.04;100.00;102235.00;5269277;28;20103;-75
2023/03/02 06:17:52;;;;;;;38.33;25.17;;;;;;;0.99;100.00;102242.00;5266588;28;20032;-75
2023/03/02 06:20:24;;;;;;;38.63;25.75;;;;;;;1.07;100.00;102248.69;5248279;28;20124;-75
2023/03/02 06:22:56;;;;;;;39.28;25.90;;;;;;;1.08;100.00;102252.94;5260495;28;20425;-75
2023/03/02 06:25:27;;;;;;;41.50;25.63;;;;;;;1.04;100.00;102246.16;5262916;28;20017;-76
2023/03/02 06:27:58;;;;;;;37.30;24.48;;;;;;;0.98;100.00;102233.38;5267924;28;20107;-75
2023/03/02 06:30:30;;;;;;;42.22;25.95;;;;;;;1.02;100.00;102239.31;5263540;28;20052;-75
2023/03/02 06:33:01;;;;;;;41.10;26.77;;;;;;;1.04;100.00;102260.78;5273711;28;20066;-75
2023/03/02 06:35:33;;;;;;;43.22;26.83;;;;;;;0.93;100.00;102261.03;5267128;28;20033;-75
2023/03/02 06:38:04;;;;;;;43.47;26.33;;;;;;;0.87;100.00;102253.41;5265455;28;20054;-75
2023/03/02 06:40:36;;;;;;;41.63;26.02;;;;;;;0.85;100.00;102247.44;5265404;28;20032;-75
2023/03/02 06:43:07;;;;;;;43.40;27.27;;;;;;;0.87;100.00;102267.19;5250381;28;20382;-75
2023/03/02 06:45:39;;;;;;;44.58;27.60;;;;;;;0.89;100.00;102264.56;5264402;28;20021;-75
2023/03/02 06:48:10;;;;;;;41.20;25.65;;;;;;;0.87;100.00;102267.19;5267009;28;20043;-75
2023/03/02 06:50:41;;;;;;;43.58;27.45;;;;;;;0.91;100.00;102267.94;5247081;28;20415;-75
2023/03/02 06:53:14;;;;;;;40.45;24.52;;;;;;;0.94;100.00;102266.13;5269759;28;20075;-75
2023/03/02 06:55:49;;;;;;;40.83;24.83;;;;;;;1.07;100.00;102263.31;5266712;28;20475;-76
2023/03/02 06:58:20;;;;;;;42.03;26.13;;;;;;;1.00;100.00;102274.66;5265741;28;20025;-75
2023/03/02 07:00:51;;;;;;;42.15;25.40;;;;;;;1.03;100.00;102272.00;5270338;28;20028;-75
2023/03/02 07:03:23;;;;;;;42.40;26.77;;;;;;;0.90;100.00;102254.19;5267114;28;20111;-75
2023/03/02 07:05:54;;;;;;;41.03;25.98;;;;;;;1.00;100.00;102272.91;5268599;28;20020;-75
2023/03/02 07:08:26;;;;;;;43.90;26.08;;;;;;;1.05;100.00;102275.38;5264987;28;20028;-75
2023/03/02 07:10:57;;;;;;;41.40;26.63;;;;;;;1.10;100.00;102277.00;5263685;28;20071;-75
2023/03/02 07:13:29;;;;;;;41.70;25.25;;;;;;;1.07;100.00;102271.91;5265398;28;20052;-75
2023/03/02 07:16:05;;;;;;;38.72;24.33;;;;;;;1.17;100.00;102269.94;5264642;28;20390;-75
2023/03/02 07:18:37;;;;;;;39.58;25.23;;;;;;;1.10;100.00;102279.59;5262173;28;20033;-75
2023/03/02 07:21:08;;;;;;;39.35;24.45;;;;;;;1.17;100.00;102283.69;5264701;28;20665;-75
2023/03/02 07:23:39;;;;;;;41.65;24.50;;;;;;;1.23;100.00;102276.72;5266752;28;20375;-75
2023/03/02 07:26:11;;;;;;;39.45;25.90;;;;;;;1.27;100.00;102280.91;5257745;28;20037;-76
2023/03/02 07:28:43;;;;;;;42.28;25.67;;;;;;;1.14;100.00;102255.41;5259273;28;20404;-76
2023/03/02 07:31:21;;;;;;;44.17;25.92;;;;;;;1.31;100.00;102282.53;5281702;27;20414;-72
2023/03/02 07:33:52;;;;;;;40.05;23.98;;;;;;;1.36;100.00;102281.53;5285183;28;20033;-72
2023/03/02 07:36:25;;;;;;;40.70;24.38;;;;;;;1.41;100.00;102284.88;5282173;28;20028;-72
2023/03/02 07:38:56;;;;;;;38.80;25.40;;;;;;;1.41;100.00;102278.88;5282813;28;20021;-72
2023/03/02 07:41:27;;;;;;;40.20;24.90;;;;;;;1.47;100.00;102283.88;5283626;28;20384;-72
2023/03/02 07:43:59;;;;;;;41.03;26.27;;;;;;;1.39;100.00;102267.72;5284317;22;20052;-77
2023/03/02 07:46:30;;;;;;;41.67;24.88;;;;;;;1.50;100.00;102277.81;5249387;28;20037;-76
2023/03/02 07:49:01;;;;;;;42.03;26.40;;;;;;;1.53;100.00;102267.41;5252125;28;20025;-76
2023/03/02 07:51:32;;;;;;;42.72;25.60;;;;;;;1.54;100.00;102277.69;5250269;28;20056;-78
2023/03/02 07:54:04;;;;;;;41.25;25.42;;;;;;;1.61;100.00;102283.56;5249442;28;20040;-76
2023/03/02 07:56:35;;;;;;;43.72;26.58;;;;;;;1.65;100.00;102280.00;5252373;28;20033;-77
2023/03/02 07:59:07;;;;;;;43.53;25.23;;;;;;;1.70;100.00;102284.19;5252435;28;20027;-75
2023/03/02 08:01:39;;;;;;;42.10;25.27;;;;;;;1.78;100.00;102275.38;5249923;28;20030;-75
2023/03/02 08:04:10;;;;;;;43.45;25.15;;;;;;;1.81;100.00;102280.47;5250544;28;20036;-75
2023/03/02 08:06:41;;;;;;;35.35;23.45;;;;;;;1.79;100.00;102279.69;5249935;28;20079;-75
2023/03/02 08:09:13;;;;;;;37.08;23.75;;;;;;;1.82;100.00;102277.88;5250295;28;20029;-76
2023/03/02 08:11:46;;;;;;;39.42;24.02;;;;;;;1.84;100.00;102278.66;5251116;28;20493;-75
2023/03/02 08:14:17;;;;;;;44.47;23.33;;;;;;;1.97;100.00;102286.09;5250921;28;20036;-75
2023/03/02 08:16:51;;;;;;;36.88;22.77;;;;;;;2.02;100.00;102281.69;5252377;28;20546;-75
2023/03/02 08:19:22;;;;;;;33.42;22.08;;;;;;;2.05;100.00;102279.88;5250593;28;20401;-75
2023/03/02 08:21:53;;;;;;;33.25;21.13;;;;;;;2.13;100.00;102282.25;5251010;28;20033;-75
2023/03/02 08:24:25;;;;;;;37.63;22.85;;;;;;;2.19;100.00;102274.31;5250137;28;20032;-75
2023/03/02 08:27:00;;;;;;;34.80;22.33;;;;;;;2.30;100.00;102286.94;5251157;28;20021;-75
2023/03/02 08:29:32;;;;;;;34.90;22.33;;;;;;;2.31;100.00;102280.88;5248414;28;20076;-75
2023/03/02 08:32:04;;;;;;;35.03;22.08;;;;;;;2.38;100.00;102285.00;5252271;28;20057;-76
2023/03/02 08:34:35;;;;;;;35.88;22.42;;;;;;;2.43;100.00;102284.00;5251501;28;20374;-76
2023/03/02 08:37:06;;;;;;;38.78;22.42;;;;;;;2.50;100.00;102287.28;5252073;28;20037;-75
2023/03/02 08:39:38;;;;;;;33.42;21.17;;;;;;;2.53;100.00;102289.75;5249809;28;20025;-75
2023/03/02 08:42:09;;;;;;;35.53;22.02;;;;;;;2.55;99.90;102281.97;5239695;28;20088;-75
2023/03/02 08:44:40;;;;;;;38.25;22.80;;;;;;;2.63;100.00;102275.66;5237206;28;20121;-76
2023/03/02 08:47:12;;;;;;;36.28;21.38;;;;;;;2.82;99.70;102282.91;5236711;28;20123;-76
2023/03/02 08:49:43;;;;;;;31.90;20.42;;;;;;;2.82;98.20;102286.34;5237619;28;20025;-76
2023/03/02 08:52:14;;;;;;;29.58;18.85;;;;;;;2.89;96.03;102290.44;5236675;28;20063;-76
2023/03/02 08:54:45;;;;;;;32.05;20.38;;;;;;;2.92;96.20;102277.41;5233148;28;20040;-75
2023/03/02 08:57:17;;;;;;;29.98;19.35;;;;;;;3.02;93.82;102277.13;5237856;28;20029;-76
2023/03/02 08:59:48;;;;;;;29.30;19.42;;;;;;;3.04;92.88;102281.38;5237446;28;20066;-75
2023/03/02 09:02:19;;;;;;;30.95;18.77;;;;;;;3.10;91.75;102264.78;5236532;28;20075;-76
2023/03/02 09:04:51;;;;;;;29.63;18.48;;;;;;;3.11;90.18;102258.75;5236391;28;20392;-75
2023/03/02 09:07:22;;;;;;;33.33;19.75;;;;;;;3.26;89.52;102280.69;5237180;28;20498;-76
2023/03/02 09:09:53;;;;;;;28.98;17.33;;;;;;;3.34;87.03;102248.50;5235629;28;20103;-75
2023/03/02 09:12:25;;;;;;;29.17;18.58;;;;;;;3.46;86.92;102260.19;5236255;28;20041;-76
2023/03/02 09:14:56;;;;;;;27.67;17.77;;;;;;;3.52;86.36;102265.16;5236824;28;20025;-76
2023/03/02 09:17:27;;;;;;;26.13;16.27;;;;;;;3.66;83.16;102259.53;5236924;28;20021;-76
2023/03/02 09:19:59;;;;;;;29.13;18.55;;;;;;;3.68;82.26;102251.75;5236246;28;20368;-75
2023/03/02 09:22:30;;;;;;;26.00;16.77;;;;;;;3.79;82.27;102271.22;5236365;28;20100;-76
2023/03/02 09:25:05;;;;;;;27.52;16.98;;;;;;;3.89;78.76;102266.53;5234797;28;20018;-76
2023/03/02 09:27:37;;;;;;;24.00;16.05;;;;;;;4.03;79.38;102263.50;5236590;28;20041;-76
2023/03/02 09:30:09;;;;;;;26.98;16.92;;;;;;;4.11;79.33;102257.13;5235068;28;20071;-76
2023/03/02 09:32:41;;;;;;;29.02;16.17;;;;;;;4.19;76.55;102271.59;5235147;28;20396;-76
2023/03/02 09:35:12;;;;;;;24.00;15.50;;;;;;;4.20;75.10;102266.31;5236477;28;20033;-76
2023/03/02 09:37:43;;;;;;;24.75;15.65;;;;;;;4.31;74.26;102252.97;5237005;28;20322;-76
2023/03/02 09:40:19;;;;;;;22.58;15.32;;;;;;;4.34;73.81;102263.25;5235603;28;20033;-76
2023/03/02 09:43:07;;;;;;;26.52;16.35;;;;;;;4.54;74.28;102263.38;5236299;28;20025;-75
2023/03/02 09:46:06;;;;;;;22.58;15.38;;;;;;;4.76;73.51;102262.56;5236562;28;20131;-76
2023/03/02 09:49:16;;;;;;;21.42;15.75;;;;;;;4.83;69.98;102264.03;5236562;28;20425;-76
2023/03/02 09:52:20;;;;;;;24.00;16.15;;;;;;;5.04;73.38;102250.25;5235132;28;20040;-76
2023/03/02 09:54:52;;;;;;;22.60;15.15;;;;;;;4.92;69.59;102250.69;5235164;28;20017;-76
2023/03/02 09:57:29;;;;;;;24.15;14.98;;;;;;;5.10;69.54;102249.13;5236881;28;20030;-76
2023/03/02 10:00:15;;;;;;;22.10;14.55;;;;;;;5.30;65.92;102250.94;5239749;28;20116;-76
2023/03/02 10:02:55;;;;;;;23.50;15.45;;;;;;;5.43;67.01;102246.94;5239409;28;20025;-76
2023/03/02 10:05:31;;;;;;;24.40;15.38;;;;;;;5.49;65.77;102244.13;5236871;28;20029;-76
2023/03/02 10:08:02;;;;;;;22.95;13.70;;;;;;;5.50;63.53;102240.59;5235870;28;20052;-75
2023/03/02 10:10:41;;;;;;;22.02;15.10;;;;;;;5.68;63.33;102251.13;5234014;28;20033;-76
2023/03/02 10:13:30;;;;;;;21.92;13.77;;;;;;;5.99;63.94;102253.31;5235169;28;20121;-75
2023/03/02 10:16:26;;;;;;;20.23;13.27;;;;;;;6.07;62.88;102240.81;5234999;28;20128;-75
2023/03/02 10:19:06;;;;;;;20.73;13.30;;;;;;;6.14;59.46;102250.06;5236212;28;20099;-74
2023/03/02 10:21:56;;;;;;;23.02;13.45;;;;;;;6.30;59.00;102247.63;5235447;28;20030;-75
2023/03/02 10:24:33;;;;;;;19.65;13.52;;;;;;;6.29;57.72;102253.75;5235871;28;20047;-75
2023/03/02 10:27:33;;;;;;;18.63;12.13;;;;;;;6.45;57.70;102249.53;5236027;28;20049;-74
2023/03/02 10:30:32;;;;;;;18.33;12.15;;;;;;;6.71;57.16;102240.53;5233630;28;20037;-75
2023/03/02 10:33:16;;;;;;;17.02;11.85;;;;;;;6.56;55.56;102243.84;5234092;28;20438;-75
2023/03/02 10:35:50;;;;;;;18.45;11.57;;;;;;;6.64;54.13;102248.72;5235380;28;20399;-75
2023/03/02 10:38:24;;;;;;;16.63;11.27;;;;;;;6.71;53.72;102239.72;5235021;28;20067;-75
2023/03/02 10:41:05;;;;;;;;;;;;;;;7.36;52.34;102245.31;5235164;28;20049;-75
2023/03/02 10:43:50;;;;;;;14.52;10.48;;;;;;;7.09;51.94;102244.88;5234895;28;19967;-75
2023/03/02 10:46:21;;;;;;;16.33;11.00;;;;;;;6.97;49.97;102228.03;5234976;28;20068;-75
2023/03/02 10:48:58;;;;;;;16.17;10.60;;;;;;;7.22;50.50;102223.34;5233735;28;20065;-75
2023/03/02 10:51:33;;;;;;;15.90;10.82;;;;;;;7.25;49.88;102230.19;5234831;28;20517;-76
2023/03/02 10:54:14;;;;;;;15.02;10.48;;;;;;;7.34;49.68;102237.53;5232930;28;20423;-75
2023/03/02 10:56:51;;;;;;;16.30;11.02;;;;;;;7.42;48.74;102229.34;5235333;28;20397;-75
2023/03/02 10:59:43;;;;;;;18.20;10.27;;;;;;;7.64;50.32;102236.94;5233245;28;20033;-75
2023/03/02 11:02:22;;;;;;;16.05;11.10;;;;;;;7.48;50.35;102235.09;5232674;28;20037;-75
2023/03/02 11:04:57;;;;;;;16.17;11.43;;;;;;;7.61;48.43;102229.28;5233017;28;20060;-75
2023/03/02 11:07:29;;;;;;;16.33;11.43;;;;;;;7.62;48.34;102224.00;5232667;28;20132;-76
2023/03/02 11:10:06;;;;;;;16.92;11.57;;;;;;;7.83;48.09;102226.44;5233787;28;20128;-75
2023/03/02 11:12:45;;;;;;;19.02;11.77;;;;;;;7.85;49.81;102212.38;5233640;28;20078;-75
2023/03/02 11:15:34;;;;;;;16.73;11.70;;;;;;;8.06;49.53;102213.03;5233403;28;20039;-75
2023/03/02 11:18:20;;;;;;;15.63;10.75;;;;;;;8.05;46.88;102206.97;5233854;28;20410;-76
2023/03/02 11:21:00;;;;;;;19.05;11.75;;;;;;;8.31;49.40;102212.59;5233159;28;20475;-75
2023/03/02 11:23:35;;;;;;;17.08;11.80;;;;;;;8.19;49.60;102216.69;5233605;28;20061;-76
2023/03/02 11:26:19;;;;;;;15.70;11.50;;;;;;;8.55;50.39;102209.59;5234338;28;20503;-76
2023/03/02 11:28:54;;;;;;;17.65;12.07;;;;;;;8.52;49.78;102201.03;5233992;28;20075;-75
2023/03/02 11:31:33;;;;;;;16.50;11.63;;;;;;;8.44;47.99;102207.56;5233359;28;20100;-75
2023/03/02 11:34:31;;;;;;;16.77;11.45;;;;;;;8.71;49.19;102208.69;5233066;28;20115;-76
2023/03/02 11:37:19;;;;;;;17.02;11.48;;;;;;;8.81;48.98;102202.94;5232711;28;20025;-75
2023/03/02 11:40:04;;;;;;;17.35;12.27;;;;;;;8.71;48.83;102200.88;5232679;28;20160;-76
2023/03/02 11:42:39;;;;;;;18.92;12.70;;;;;;;8.48;48.55;102194.25;5233552;28;20082;-75
2023/03/02 11:45:13;;;;;;;17.73;13.25;;;;;;;8.51;48.29;102199.31;5233623;28;20041;-75
2023/03/02 11:47:50;;;;;;;19.60;12.68;;;;;;;8.63;48.49;102196.97;5233083;28;20474;-75
2023/03/02 11:50:21;;;;;;;18.30;13.57;;;;;;;8.56;48.26;102195.63;5233600;28;20025;-75
2023/03/02 11:53:04;;;;;;;18.38;12.02;;;;;;;8.83;48.97;102196.72;5230359;28;20033;-75